createdAt,value
2022-12-18T00:00:49.617Z,78.11
2022-12-18T00:01:52.308Z,77.99
2022-12-18T00:02:54.835Z,77.59
2022-12-18T00:03:57.329Z,77.97
2022-12-18T00:05:02.696Z,78.43
2022-12-18T00:06:05.337Z,78.48
2022-12-18T00:07:07.845Z,78.67
2022-12-18T00:08:10.009Z,78.89
2022-12-18T00:09:12.967Z,78.68
2022-12-18T00:10:15.575Z,78.78
2022-12-18T00:11:20.063Z,78.54
2022-12-18T00:12:22.431Z,78.17
2022-12-18T00:13:24.619Z,77.92
2022-12-18T00:14:27.056Z,77.60
2022-12-18T00:15:29.446Z,77.59
2022-12-18T00:16:33.947Z,77.38
2022-12-18T00:17:36.683Z,76.62
2022-12-18T00:18:40.634Z,76.25
2022-12-18T00:19:43.055Z,75.72
2022-12-18T00:20:45.408Z,75.48
2022-12-18T00:21:47.560Z,76.12
2022-12-18T00:22:50.129Z,76.10
2022-12-18T00:23:53.038Z,76.65
2022-12-18T00:24:55.202Z,77.50
2022-12-18T00:26:02.001Z,78.21
2022-12-18T00:27:06.709Z,78.80
2022-12-18T00:28:09.279Z,79.13
2022-12-18T00:29:14.801Z,79.30
2022-12-18T00:30:19.268Z,79.33
2022-12-18T00:31:24.794Z,80.12
2022-12-18T00:32:29.034Z,80.44
2022-12-18T00:33:31.700Z,80.71
2022-12-18T00:34:33.950Z,80.87
2022-12-18T00:35:36.313Z,81.01
2022-12-18T00:36:38.699Z,81.51
2022-12-18T00:37:41.202Z,81.82
2022-12-18T00:38:43.480Z,82.09
2022-12-18T00:39:45.663Z,82.04
2022-12-18T00:40:48.108Z,81.81
2022-12-18T00:42:08.765Z,81.65
2022-12-18T00:43:11.164Z,81.19
2022-12-18T00:44:15.373Z,81.63
2022-12-18T00:45:17.603Z,81.28
2022-12-18T00:46:20.035Z,81.72
2022-12-18T00:47:23.900Z,82.27
2022-12-18T00:48:26.404Z,82.44
2022-12-18T00:49:28.643Z,82.25
2022-12-18T00:50:30.898Z,81.88
2022-12-18T00:51:35.561Z,81.77
2022-12-18T00:52:40.824Z,82.07
2022-12-18T00:53:43.116Z,82.25
2022-12-18T00:54:45.307Z,82.80
2022-12-18T00:55:48.153Z,82.88
2022-12-18T00:56:50.525Z,82.61
2022-12-18T00:57:53.730Z,82.06
2022-12-18T00:58:56.140Z,82.18
2022-12-18T00:59:58.622Z,82.17
2022-12-18T01:01:01.023Z,82.18
2022-12-18T01:02:03.359Z,82.53
2022-12-18T01:03:06.524Z,82.63
2022-12-18T01:04:09.055Z,82.40
2022-12-18T01:05:13.199Z,81.81
2022-12-18T01:06:17.104Z,81.20
2022-12-18T01:07:19.325Z,81.18
2022-12-18T01:08:21.721Z,81.30
2022-12-18T01:09:24.229Z,81.21
2022-12-18T01:10:27.842Z,81.21
2022-12-18T01:11:33.273Z,81.12
2022-12-18T01:12:35.636Z,80.88
2022-12-18T01:13:39.038Z,81.65
2022-12-18T01:14:41.535Z,81.64
2022-12-18T01:15:52.879Z,81.46
2022-12-18T01:16:55.175Z,81.75
2022-12-18T01:17:57.366Z,81.84
2022-12-18T01:19:02.992Z,81.52
2022-12-18T01:20:05.956Z,81.09
2022-12-18T01:21:10.732Z,81.06
2022-12-18T01:22:13.076Z,81.33
2022-12-18T01:23:15.242Z,81.28
2022-12-18T01:24:17.597Z,81.31
2022-12-18T01:25:19.760Z,81.73
2022-12-18T01:26:22.655Z,82.08
2022-12-18T01:27:26.457Z,81.86
2022-12-18T01:28:28.850Z,81.73
2022-12-18T01:29:31.352Z,81.35
2022-12-18T01:30:33.588Z,81.35
2022-12-18T01:31:35.869Z,81.15
2022-12-18T01:32:38.326Z,80.75
2022-12-18T01:33:41.040Z,80.81
2022-12-18T01:34:43.643Z,81.24
2022-12-18T01:35:45.807Z,81.34
2022-12-18T01:36:48.058Z,81.13
2022-12-18T01:37:50.255Z,81.42
2022-12-18T01:38:53.204Z,81.67
2022-12-18T01:39:55.662Z,81.22
2022-12-18T01:41:00.963Z,81.21
2022-12-18T01:42:14.867Z,81.56
2022-12-18T01:43:18.242Z,82.05
2022-12-18T01:44:59.296Z,82.01
2022-12-18T01:46:01.560Z,82.01
2022-12-18T01:47:03.821Z,81.52
2022-12-18T01:48:09.677Z,82.06
2022-12-18T01:49:12.941Z,82.07
2022-12-18T01:50:39.318Z,82.59
2022-12-18T01:51:42.029Z,82.47
2022-12-18T01:52:48.362Z,82.34
2022-12-18T01:53:50.956Z,82.07
2022-12-18T01:54:54.064Z,82.15
2022-12-18T01:55:58.726Z,82.57
2022-12-18T01:57:01.975Z,82.31
2022-12-18T01:58:04.841Z,81.89
2022-12-18T01:59:11.086Z,81.28
2022-12-18T02:00:16.881Z,81.49
2022-12-18T02:01:20.749Z,81.10
2022-12-18T02:02:23.542Z,80.75
2022-12-18T02:03:26.129Z,80.57
2022-12-18T02:04:28.995Z,80.54
2022-12-18T02:06:02.302Z,81.01
2022-12-18T02:07:10.536Z,80.85
2022-12-18T02:08:15.674Z,80.72
2022-12-18T02:09:24.543Z,80.96
2022-12-18T02:10:36.005Z,81.08
2022-12-18T02:12:16.209Z,81.22
2022-12-18T02:13:53.693Z,81.39
2022-12-18T02:15:51.267Z,80.99
2022-12-18T02:16:58.806Z,80.43
2022-12-18T02:18:24.932Z,80.08
2022-12-18T02:19:58.464Z,79.47
2022-12-18T02:21:10.664Z,79.74
2022-12-18T02:22:51.307Z,79.43
2022-12-18T02:24:15.395Z,79.13
2022-12-18T02:25:25.208Z,78.97
2022-12-18T02:26:35.575Z,78.88
2022-12-18T02:27:40.406Z,78.95
2022-12-18T02:28:52.196Z,78.73
2022-12-18T02:29:59.095Z,79.17
2022-12-18T02:31:07.514Z,79.31
2022-12-18T02:32:17.264Z,78.78
2022-12-18T02:33:21.068Z,78.34
2022-12-18T02:34:29.062Z,78.59
2022-12-18T02:35:32.673Z,78.83
2022-12-18T02:36:41.491Z,78.96
2022-12-18T02:37:46.398Z,79.51
2022-12-18T02:38:49.187Z,79.96
2022-12-18T02:39:56.337Z,80.13
2022-12-18T02:40:59.487Z,80.56
2022-12-18T02:42:08.647Z,80.86
2022-12-18T02:43:13.740Z,81.56
2022-12-18T02:44:16.145Z,81.53
2022-12-18T02:45:18.919Z,81.08
2022-12-18T02:46:51.172Z,80.85
2022-12-18T02:47:53.575Z,81.06
2022-12-18T02:49:10.170Z,81.11
2022-12-18T02:50:25.729Z,80.95
2022-12-18T02:51:59.302Z,80.60
2022-12-18T02:53:01.447Z,80.24
2022-12-18T02:54:19.184Z,79.95
2022-12-18T02:55:47.314Z,79.85
2022-12-18T02:56:57.076Z,79.96
2022-12-18T02:58:33.856Z,80.31
2022-12-18T02:59:59.521Z,80.66
2022-12-18T03:01:14.747Z,80.56
2022-12-18T03:02:17.410Z,80.76
2022-12-18T03:03:26.236Z,80.86
2022-12-18T03:04:32.144Z,81.11
2022-12-18T03:05:41.962Z,81.13
2022-12-18T03:06:49.366Z,80.52
2022-12-18T03:07:57.936Z,80.38
2022-12-18T03:09:15.366Z,80.46
2022-12-18T03:10:22.737Z,80.12
2022-12-18T03:11:46.491Z,80.72
2022-12-18T03:13:16.256Z,81.26
2022-12-18T03:14:21.747Z,81.06
2022-12-18T03:15:32.838Z,81.48
2022-12-18T03:16:44.636Z,81.01
2022-12-18T03:17:53.508Z,81.04
2022-12-18T03:19:02.550Z,80.82
2022-12-18T03:20:12.811Z,80.61
2022-12-18T03:21:19.135Z,80.09
2022-12-18T03:22:24.187Z,80.11
2022-12-18T03:23:33.412Z,80.19
2022-12-18T03:24:39.973Z,80.17
2022-12-18T03:25:45.556Z,80.20
2022-12-18T03:26:54.485Z,80.01
2022-12-18T03:28:00.101Z,80.64
2022-12-18T03:29:09.123Z,81.02
2022-12-18T03:30:14.944Z,80.52
2022-12-18T03:31:19.022Z,80.46
2022-12-18T03:32:32.206Z,79.93
2022-12-18T03:33:59.850Z,79.60
2022-12-18T03:35:13.893Z,79.11
2022-12-18T03:36:22.588Z,78.86
2022-12-18T03:37:26.357Z,78.79
2022-12-18T03:38:28.708Z,79.10
2022-12-18T03:39:31.174Z,80.02
2022-12-18T03:40:44.075Z,79.90
2022-12-18T03:42:28.049Z,80.06
2022-12-18T03:43:42.647Z,79.47
2022-12-18T03:44:57.828Z,79.69
2022-12-18T03:46:27.284Z,79.96
2022-12-18T03:47:45.557Z,80.38
2022-12-18T03:49:00.009Z,80.33
2022-12-18T03:50:17.343Z,80.74
2022-12-18T03:51:33.748Z,80.65
2022-12-18T03:53:03.945Z,80.85
2022-12-18T03:54:09.265Z,80.91
2022-12-18T03:55:17.838Z,80.69
2022-12-18T03:56:23.917Z,80.11
2022-12-18T03:57:30.015Z,80.27
2022-12-18T03:58:37.659Z,80.48
2022-12-18T03:59:57.579Z,80.53
2022-12-18T04:01:10.745Z,80.66
2022-12-18T04:02:15.540Z,80.43
2022-12-18T04:03:23.968Z,80.02
2022-12-18T04:04:29.842Z,79.47
2022-12-18T04:05:36.080Z,79.28
2022-12-18T04:06:41.103Z,79.06
2022-12-18T04:07:48.880Z,78.99
2022-12-18T04:08:51.494Z,79.33
2022-12-18T04:09:59.576Z,79.29
2022-12-18T04:11:02.830Z,79.25
2022-12-18T04:12:05.476Z,79.29
2022-12-18T04:13:08.446Z,79.34
2022-12-18T04:14:17.633Z,79.68
2022-12-18T04:15:21.906Z,79.64
2022-12-18T04:16:27.566Z,79.75
2022-12-18T04:17:32.914Z,80.15
2022-12-18T04:18:35.241Z,80.25
2022-12-18T04:19:37.851Z,80.93
2022-12-18T04:20:40.497Z,80.56
2022-12-18T04:21:43.615Z,80.83
2022-12-18T04:22:47.811Z,81.06
2022-12-18T04:23:50.488Z,81.46
2022-12-18T04:24:55.557Z,81.38
2022-12-18T04:26:05.557Z,81.39
2022-12-18T04:27:30.709Z,80.58
2022-12-18T04:28:35.595Z,81.00
2022-12-18T04:29:38.570Z,81.27
2022-12-18T04:30:41.559Z,82.23
2022-12-18T04:31:44.558Z,82.66
2022-12-18T04:32:52.047Z,82.87
2022-12-18T04:33:55.469Z,82.64
2022-12-18T04:34:58.334Z,82.75
2022-12-18T04:36:01.019Z,82.79
2022-12-18T04:37:03.680Z,82.62
2022-12-18T04:38:09.442Z,82.99
2022-12-18T04:39:11.659Z,82.71
2022-12-18T04:40:14.110Z,82.47
2022-12-18T04:41:21.440Z,82.45
2022-12-18T04:42:25.067Z,82.29
2022-12-18T04:43:27.859Z,82.32
2022-12-18T04:44:30.099Z,82.29
2022-12-18T04:45:33.182Z,82.21
2022-12-18T04:46:35.418Z,82.25
2022-12-18T04:47:37.932Z,82.29
2022-12-18T04:48:40.446Z,82.37
2022-12-18T04:49:42.647Z,81.90
2022-12-18T04:50:44.910Z,82.12
2022-12-18T04:51:47.144Z,82.83
2022-12-18T04:52:49.570Z,83.41
2022-12-18T04:53:51.939Z,83.59
2022-12-18T04:54:54.088Z,83.74
2022-12-18T04:56:11.385Z,83.41
2022-12-18T04:57:13.648Z,82.80
2022-12-18T04:58:17.054Z,82.14
2022-12-18T04:59:19.261Z,81.98
2022-12-18T05:00:22.064Z,81.94
2022-12-18T05:01:27.122Z,81.64
2022-12-18T05:02:36.525Z,81.41
2022-12-18T05:03:39.764Z,81.40
2022-12-18T05:04:42.495Z,81.44
2022-12-18T05:05:44.891Z,81.09
2022-12-18T05:06:47.104Z,81.11
2022-12-18T05:07:49.681Z,80.65
2022-12-18T05:08:52.156Z,80.91
2022-12-18T05:09:54.339Z,80.68
2022-12-18T05:11:05.194Z,80.24
2022-12-18T05:12:07.696Z,79.83
2022-12-18T05:13:09.862Z,79.36
2022-12-18T05:14:13.662Z,78.78
2022-12-18T05:15:15.986Z,78.57
2022-12-18T05:16:18.473Z,79.16
2022-12-18T05:17:20.924Z,79.30
2022-12-18T05:18:24.364Z,79.41
2022-12-18T05:19:26.728Z,79.85
2022-12-18T05:20:29.012Z,79.94
2022-12-18T05:21:31.975Z,80.06
2022-12-18T05:22:34.331Z,80.03
2022-12-18T05:23:37.334Z,80.40
2022-12-18T05:24:39.942Z,80.73
2022-12-18T05:25:42.142Z,80.80
2022-12-18T05:26:44.547Z,80.66
2022-12-18T05:27:47.343Z,80.65
2022-12-18T05:28:49.767Z,80.79
2022-12-18T05:29:51.979Z,80.76
2022-12-18T05:30:57.107Z,80.75
2022-12-18T05:31:59.483Z,80.27
2022-12-18T05:33:03.851Z,80.20
2022-12-18T05:34:07.076Z,80.22
2022-12-18T05:35:11.489Z,80.57
2022-12-18T05:36:13.699Z,80.44
2022-12-18T05:37:16.104Z,80.84
2022-12-18T05:38:18.658Z,80.67
2022-12-18T05:39:23.361Z,80.63
2022-12-18T05:40:25.592Z,80.92
2022-12-18T05:41:28.509Z,80.83
2022-12-18T05:42:31.562Z,80.61
2022-12-18T05:43:35.983Z,80.89
2022-12-18T05:44:38.585Z,81.17
2022-12-18T05:45:42.578Z,80.95
2022-12-18T05:46:44.834Z,81.01
2022-12-18T05:47:47.021Z,81.21
2022-12-18T05:48:51.214Z,80.87
2022-12-18T05:49:53.403Z,80.64
2022-12-18T05:50:55.564Z,80.55
2022-12-18T05:51:57.926Z,80.36
2022-12-18T05:53:00.120Z,80.78
2022-12-18T05:54:04.938Z,80.63
2022-12-18T05:55:08.763Z,81.05
2022-12-18T05:56:13.695Z,81.14
2022-12-18T05:57:15.914Z,80.70
2022-12-18T05:58:18.273Z,81.02
2022-12-18T05:59:20.760Z,81.19
2022-12-18T06:00:26.277Z,81.40
2022-12-18T06:01:28.601Z,81.64
2022-12-18T06:02:30.881Z,81.08
2022-12-18T06:03:34.165Z,81.35
2022-12-18T06:04:36.982Z,81.26
2022-12-18T06:05:43.760Z,80.75
2022-12-18T06:06:46.130Z,80.70
2022-12-18T06:07:48.346Z,80.72
2022-12-18T06:08:51.194Z,80.62
2022-12-18T06:09:53.594Z,80.44
2022-12-18T06:10:55.968Z,80.11
2022-12-18T06:11:58.190Z,80.54
2022-12-18T06:13:03.114Z,80.38
2022-12-18T06:14:06.789Z,80.03
2022-12-18T06:15:09.518Z,80.08
2022-12-18T06:16:11.771Z,80.05
2022-12-18T06:17:14.069Z,80.31
2022-12-18T06:18:16.414Z,80.31
2022-12-18T06:19:18.801Z,80.15
2022-12-18T06:20:26.009Z,79.89
2022-12-18T06:21:33.813Z,79.87
2022-12-18T06:22:36.818Z,79.47
2022-12-18T06:23:39.516Z,79.28
2022-12-18T06:24:44.972Z,79.15
2022-12-18T06:25:47.580Z,79.69
2022-12-18T06:26:49.750Z,79.64
2022-12-18T06:27:51.937Z,79.87
2022-12-18T06:28:54.364Z,80.12
2022-12-18T06:29:56.580Z,79.71
2022-12-18T06:30:58.733Z,79.66
2022-12-18T06:32:03.260Z,79.59
2022-12-18T06:33:05.567Z,79.21
2022-12-18T06:34:07.771Z,79.35
2022-12-18T06:35:10.365Z,79.02
2022-12-18T06:36:14.239Z,78.94
2022-12-18T06:37:16.595Z,79.28
2022-12-18T06:38:18.774Z,79.26
2022-12-18T06:39:25.087Z,79.94
2022-12-18T06:40:27.629Z,79.85
2022-12-18T06:41:29.857Z,80.37
2022-12-18T06:42:32.969Z,80.35
2022-12-18T06:43:35.368Z,80.38
2022-12-18T06:44:37.649Z,80.52
2022-12-18T06:45:40.425Z,81.15
2022-12-18T06:46:45.507Z,81.56
2022-12-18T06:47:47.718Z,81.79
2022-12-18T06:48:51.468Z,82.23
2022-12-18T06:49:53.636Z,82.96
2022-12-18T06:50:56.124Z,83.08
2022-12-18T06:51:58.342Z,82.99
2022-12-18T06:53:00.710Z,83.17
2022-12-18T06:54:06.181Z,81.91
2022-12-18T06:55:09.293Z,81.67
2022-12-18T06:56:11.838Z,81.56
2022-12-18T06:57:14.006Z,81.81
2022-12-18T06:58:16.492Z,83.14
2022-12-18T06:59:18.893Z,81.83
2022-12-18T07:00:22.797Z,81.23
2022-12-18T07:01:25.544Z,80.59
2022-12-18T07:02:27.978Z,79.96
2022-12-18T07:03:30.549Z,79.51
2022-12-18T07:04:33.164Z,79.61
2022-12-18T07:05:35.597Z,79.90
2022-12-18T07:06:37.813Z,79.77
2022-12-18T07:07:40.269Z,79.58
2022-12-18T07:08:44.190Z,79.40
2022-12-18T07:09:46.651Z,79.53
2022-12-18T07:10:55.775Z,79.48
2022-12-18T07:11:58.459Z,79.99
2022-12-18T07:13:03.922Z,80.15
2022-12-18T07:14:06.116Z,80.20
2022-12-18T07:15:08.923Z,81.27
2022-12-18T07:16:24.647Z,81.41
2022-12-18T07:17:27.742Z,81.52
2022-12-18T07:18:30.237Z,81.81
2022-12-18T07:19:32.526Z,81.28
2022-12-18T07:20:34.913Z,81.24
2022-12-18T07:21:37.300Z,80.70
2022-12-18T07:22:39.547Z,80.44
2022-12-18T07:23:43.695Z,80.06
2022-12-18T07:24:47.066Z,80.44
2022-12-18T07:25:52.539Z,80.46
2022-12-18T07:26:54.929Z,80.14
2022-12-18T07:27:57.098Z,80.04
2022-12-18T07:28:59.581Z,79.86
2022-12-18T07:30:01.944Z,80.20
2022-12-18T07:31:12.939Z,80.17
2022-12-18T07:32:15.408Z,79.96
2022-12-18T07:33:17.624Z,80.15
2022-12-18T07:34:19.827Z,80.03
2022-12-18T07:35:25.669Z,79.84
2022-12-18T07:36:28.351Z,79.89
2022-12-18T07:37:30.542Z,79.66
2022-12-18T07:38:33.922Z,80.24
2022-12-18T07:39:36.342Z,79.73
2022-12-18T07:40:38.537Z,79.60
2022-12-18T07:41:47.431Z,79.41
2022-12-18T07:42:51.764Z,79.51
2022-12-18T07:43:53.946Z,79.27
2022-12-18T07:44:56.305Z,79.06
2022-12-18T07:45:58.827Z,78.83
2022-12-18T07:47:01.507Z,79.08
2022-12-18T07:48:03.751Z,79.49
2022-12-18T07:49:05.943Z,79.93
2022-12-18T07:50:08.803Z,80.47
2022-12-18T07:51:13.690Z,80.23
2022-12-18T07:52:16.197Z,80.75
2022-12-18T07:53:18.418Z,81.92
2022-12-18T07:54:20.693Z,82.51
2022-12-18T07:55:25.663Z,82.27
2022-12-18T07:56:30.058Z,82.12
2022-12-18T07:58:55.580Z,81.32
2022-12-18T07:59:57.829Z,81.05
2022-12-18T08:01:12.158Z,81.05
2022-12-18T08:02:14.645Z,81.18
2022-12-18T08:03:17.089Z,81.42
2022-12-18T08:04:19.664Z,81.30
2022-12-18T08:05:24.877Z,81.46
2022-12-18T08:06:27.284Z,81.59
2022-12-18T08:07:29.885Z,82.06
2022-12-18T08:08:32.313Z,82.45
2022-12-18T08:09:34.484Z,82.67
2022-12-18T08:10:39.177Z,82.63
2022-12-18T08:11:43.400Z,82.37
2022-12-18T08:12:45.823Z,82.35
2022-12-18T08:13:48.032Z,82.24
2022-12-18T08:14:50.374Z,81.79
2022-12-18T08:16:03.297Z,81.63
2022-12-18T08:17:05.951Z,81.46
2022-12-18T08:18:12.707Z,81.08
2022-12-18T08:19:16.510Z,80.89
2022-12-18T08:20:19.341Z,80.85
2022-12-18T08:21:25.698Z,81.17
2022-12-18T08:22:28.099Z,81.14
2022-12-18T08:23:30.292Z,81.13
2022-12-18T08:24:32.687Z,81.32
2022-12-18T08:25:35.101Z,81.13
2022-12-18T08:26:39.585Z,80.57
2022-12-18T08:27:44.257Z,80.80
2022-12-18T08:28:46.476Z,80.74
2022-12-18T08:29:48.753Z,80.30
2022-12-18T08:30:53.296Z,80.11
2022-12-18T08:31:55.578Z,79.97
2022-12-18T08:32:58.273Z,79.96
2022-12-18T08:34:00.555Z,79.89
2022-12-18T08:35:05.645Z,80.08
2022-12-18T08:36:10.761Z,80.58
2022-12-18T08:37:13.001Z,80.96
2022-12-18T08:38:15.415Z,81.46
2022-12-18T08:39:17.672Z,82.27
2022-12-18T08:40:20.083Z,82.34
2022-12-18T08:41:25.249Z,82.40
2022-12-18T08:42:46.311Z,82.41
2022-12-18T08:44:06.845Z,82.45
2022-12-18T08:45:09.800Z,82.20
2022-12-18T08:46:13.024Z,81.67
2022-12-18T08:47:18.399Z,81.34
2022-12-18T08:48:22.402Z,81.13
2022-12-18T08:49:24.686Z,80.85
2022-12-18T08:50:27.132Z,81.07
2022-12-18T08:51:29.365Z,80.99
2022-12-18T08:52:33.312Z,81.25
2022-12-18T08:53:36.107Z,81.18
2022-12-18T08:54:38.342Z,80.21
2022-12-18T08:55:41.451Z,80.13
2022-12-18T08:56:44.910Z,79.74
2022-12-18T08:57:50.455Z,79.55
2022-12-18T08:58:56.056Z,80.58
2022-12-18T08:59:58.195Z,81.17
2022-12-18T09:01:03.737Z,81.39
2022-12-18T09:02:06.116Z,81.81
2022-12-18T09:03:16.353Z,82.31
2022-12-18T09:04:19.041Z,82.08
2022-12-18T09:05:23.274Z,82.28
2022-12-18T09:06:26.556Z,82.40
2022-12-18T09:07:28.719Z,82.69
2022-12-18T09:08:31.156Z,82.62
2022-12-18T09:09:37.092Z,82.33
2022-12-18T09:10:46.633Z,82.03
2022-12-18T09:11:48.851Z,81.42
2022-12-18T09:12:51.279Z,82.00
2022-12-18T09:13:54.783Z,82.07
2022-12-18T09:14:57.850Z,82.70
2022-12-18T09:16:00.022Z,82.35
2022-12-18T09:17:05.096Z,82.05
2022-12-18T09:18:08.150Z,81.50
2022-12-18T09:19:11.117Z,80.88
2022-12-18T09:20:13.357Z,80.63
2022-12-18T09:21:18.950Z,79.63
2022-12-18T09:22:22.479Z,79.22
2022-12-18T09:23:24.906Z,79.40
2022-12-18T09:24:27.290Z,79.35
2022-12-18T09:25:34.137Z,79.06
2022-12-18T09:26:36.794Z,78.21
2022-12-18T09:27:39.002Z,78.19
2022-12-18T09:28:44.005Z,77.98
2022-12-18T09:29:46.502Z,78.20
2022-12-18T09:30:50.612Z,78.69
2022-12-18T09:31:52.879Z,78.21
2022-12-18T09:32:55.334Z,78.53
2022-12-18T09:33:57.994Z,78.09
2022-12-18T09:35:00.833Z,77.84
2022-12-18T09:36:09.278Z,77.64
2022-12-18T09:37:11.516Z,76.61
2022-12-18T09:38:20.000Z,76.53
2022-12-18T09:39:25.142Z,76.00
2022-12-18T09:40:33.809Z,75.91
2022-12-18T09:41:45.158Z,76.06
2022-12-18T09:42:54.348Z,76.00
2022-12-18T09:44:02.043Z,75.79
2022-12-18T09:45:05.085Z,75.78
2022-12-18T09:46:17.214Z,75.59
2022-12-18T09:47:38.683Z,75.24
2022-12-18T09:48:46.929Z,75.39
2022-12-18T09:49:53.966Z,75.44
2022-12-18T09:51:04.038Z,75.77
2022-12-18T09:52:15.498Z,75.80
2022-12-18T09:53:23.698Z,75.96
2022-12-18T09:54:40.397Z,75.97
2022-12-18T09:55:47.887Z,76.38
2022-12-18T09:56:50.281Z,76.50
2022-12-18T09:57:57.972Z,76.09
2022-12-18T09:59:01.934Z,76.06
2022-12-18T10:00:19.516Z,75.31
2022-12-18T10:01:34.035Z,75.36
2022-12-18T10:02:41.799Z,74.89
2022-12-18T10:03:44.406Z,74.71
2022-12-18T10:05:07.882Z,74.67
2022-12-18T10:06:26.237Z,75.37
2022-12-18T10:07:52.663Z,75.86
2022-12-18T10:09:21.657Z,77.09
2022-12-18T10:10:29.879Z,77.62
2022-12-18T10:11:41.907Z,77.83
2022-12-18T10:12:49.342Z,77.84
2022-12-18T10:14:05.594Z,77.81
2022-12-18T10:15:38.642Z,77.86
2022-12-18T10:16:56.286Z,77.68
2022-12-18T10:18:22.168Z,77.93
2022-12-18T10:20:02.726Z,77.24
2022-12-18T10:21:12.418Z,77.44
2022-12-18T10:22:28.454Z,77.16
2022-12-18T10:23:48.207Z,77.44
2022-12-18T10:25:08.028Z,77.75
2022-12-18T10:26:13.563Z,77.65
2022-12-18T10:27:20.459Z,78.30
2022-12-18T10:28:24.388Z,78.62
2022-12-18T10:29:27.184Z,78.83
2022-12-18T10:30:29.556Z,79.15
2022-12-18T10:31:31.799Z,79.13
2022-12-18T10:32:34.266Z,79.36
2022-12-18T10:33:36.578Z,79.37
2022-12-18T10:34:38.787Z,79.39
2022-12-18T10:35:43.334Z,78.96
2022-12-18T10:36:45.616Z,78.51
2022-12-18T10:38:05.258Z,78.31
2022-12-18T10:39:24.918Z,78.93
2022-12-18T10:40:27.429Z,79.29
2022-12-18T10:41:31.851Z,79.36
2022-12-18T10:42:34.578Z,79.47
2022-12-18T10:43:39.565Z,79.62
2022-12-18T10:44:41.952Z,80.06
2022-12-18T10:46:03.912Z,80.08
2022-12-18T10:47:13.644Z,79.61
2022-12-18T10:48:22.368Z,79.13
2022-12-18T10:49:28.822Z,78.62
2022-12-18T10:51:09.178Z,77.77
2022-12-18T10:52:17.032Z,77.64
2022-12-18T10:53:26.292Z,78.00
2022-12-18T10:54:30.879Z,77.93
2022-12-18T10:55:36.578Z,77.64
2022-12-18T10:56:39.224Z,78.27
2022-12-18T10:57:42.634Z,78.02
2022-12-18T10:58:57.205Z,77.78
2022-12-18T11:00:02.290Z,77.79
2022-12-18T11:01:21.063Z,76.60
2022-12-18T11:02:35.775Z,76.10
2022-12-18T11:03:47.041Z,75.29
2022-12-18T11:04:53.586Z,75.22
2022-12-18T11:06:19.083Z,74.74
2022-12-18T11:07:21.571Z,75.39
2022-12-18T11:08:24.319Z,76.18
2022-12-18T11:09:30.187Z,76.65
2022-12-18T11:10:36.220Z,76.93
2022-12-18T11:11:38.434Z,76.91
2022-12-18T11:12:40.873Z,76.65
2022-12-18T11:14:12.739Z,77.57
2022-12-18T11:15:21.261Z,77.62
2022-12-18T11:16:26.525Z,77.95
2022-12-18T11:17:35.764Z,77.53
2022-12-18T11:18:38.428Z,77.56
2022-12-18T11:19:44.982Z,77.69
2022-12-18T11:21:15.819Z,78.49
2022-12-18T11:22:29.133Z,78.34
2022-12-18T11:23:32.680Z,78.31
2022-12-18T11:24:36.848Z,78.40
2022-12-18T11:25:39.454Z,78.15
2022-12-18T11:26:44.289Z,77.74
2022-12-18T11:27:56.383Z,77.60
2022-12-18T11:29:18.257Z,78.14
2022-12-18T11:30:28.971Z,79.63
2022-12-18T11:31:34.393Z,79.94
2022-12-18T11:32:47.550Z,79.64
2022-12-18T11:34:19.679Z,80.07
2022-12-18T11:35:24.389Z,80.22
2022-12-18T11:36:32.229Z,80.23
2022-12-18T11:37:35.769Z,79.89
2022-12-18T11:38:43.824Z,79.42
2022-12-18T11:39:52.665Z,78.81
2022-12-18T11:41:16.966Z,78.41
2022-12-18T11:42:29.134Z,78.80
2022-12-18T11:43:59.777Z,78.37
2022-12-18T11:45:14.194Z,77.93
2022-12-18T11:46:25.249Z,77.53
2022-12-18T11:47:41.744Z,76.95
2022-12-18T11:48:55.293Z,75.95
2022-12-18T11:50:01.973Z,76.45
2022-12-18T11:51:09.520Z,76.94
2022-12-18T11:52:25.370Z,77.32
2022-12-18T11:53:28.659Z,78.44
2022-12-18T11:54:30.942Z,78.35
2022-12-18T11:55:50.381Z,77.92
2022-12-18T11:56:59.577Z,78.43
2022-12-18T11:58:22.510Z,78.34
2022-12-18T11:59:49.213Z,78.41
2022-12-18T12:01:07.823Z,78.63
2022-12-18T12:02:30.335Z,78.69
2022-12-18T12:03:53.006Z,78.65
2022-12-18T12:05:13.433Z,78.88
2022-12-18T12:06:37.318Z,79.09
2022-12-18T12:07:48.409Z,79.30
2022-12-18T12:09:12.687Z,79.76
2022-12-18T12:10:30.051Z,79.48
2022-12-18T12:12:09.896Z,78.93
2022-12-18T12:13:17.720Z,79.06
2022-12-18T12:14:42.559Z,78.93
2022-12-18T12:16:02.476Z,79.00
2022-12-18T12:17:29.284Z,78.63
2022-12-18T12:18:50.940Z,78.48
2022-12-18T12:20:19.248Z,78.03
2022-12-18T12:21:44.187Z,78.46
2022-12-18T12:23:28.101Z,78.16
2022-12-18T12:24:36.489Z,77.69
2022-12-18T12:26:05.851Z,77.60
2022-12-18T12:27:27.834Z,77.42
2022-12-18T12:28:33.517Z,77.69
2022-12-18T12:29:50.274Z,77.85
2022-12-18T12:31:19.459Z,78.19
2022-12-18T12:32:46.761Z,76.68
2022-12-18T12:34:31.212Z,76.50
2022-12-18T12:35:59.166Z,76.64
2022-12-18T12:45:07.832Z,75.88
2022-12-18T12:46:14.343Z,75.49
2022-12-18T12:47:32.513Z,76.04
2022-12-18T12:48:55.523Z,75.75
2022-12-18T12:50:02.392Z,75.18
2022-12-18T12:51:30.964Z,74.45
2022-12-18T12:52:43.805Z,73.77
2022-12-18T12:53:47.451Z,73.37
2022-12-18T12:54:50.780Z,73.17
2022-12-18T12:55:54.371Z,73.19
2022-12-18T12:56:59.423Z,73.05
2022-12-18T12:58:22.782Z,73.02
2022-12-18T12:59:37.193Z,73.12
2022-12-18T13:00:53.970Z,72.94
2022-12-18T13:02:31.117Z,72.97
2022-12-18T13:03:51.436Z,72.40
2022-12-18T13:05:01.973Z,73.16
2022-12-18T13:06:13.825Z,73.32
2022-12-18T13:07:47.373Z,74.07
2022-12-18T13:08:56.211Z,74.53
2022-12-18T13:10:17.713Z,74.10
2022-12-18T13:12:00.523Z,73.85
2022-12-18T13:13:02.705Z,74.02
2022-12-18T13:14:05.764Z,74.31
2022-12-18T13:15:23.104Z,74.53
2022-12-18T13:16:28.264Z,74.80
2022-12-18T13:17:32.084Z,74.91
2022-12-18T13:18:35.139Z,74.80
2022-12-18T13:19:37.600Z,74.91
2022-12-18T13:20:55.153Z,74.95
2022-12-18T13:22:00.784Z,74.43
2022-12-18T13:23:26.816Z,74.26
2022-12-18T13:24:32.208Z,73.79
2022-12-18T13:25:37.591Z,73.98
2022-12-18T13:26:40.275Z,74.58
2022-12-18T13:27:46.259Z,74.99
2022-12-18T13:28:49.339Z,74.79
2022-12-18T13:29:52.832Z,74.25
2022-12-18T13:30:58.397Z,73.54
2022-12-18T13:32:02.060Z,73.35
2022-12-18T13:33:22.952Z,73.56
2022-12-18T13:34:27.483Z,72.69
2022-12-18T13:35:30.908Z,72.46
2022-12-18T13:36:34.511Z,73.23
2022-12-18T13:37:52.738Z,73.69
2022-12-18T13:39:26.546Z,72.95
2022-12-18T13:40:42.125Z,73.39
2022-12-18T13:41:48.899Z,73.55
2022-12-18T13:43:09.788Z,73.22
2022-12-18T13:44:35.968Z,73.29
2022-12-18T13:46:03.850Z,73.10
2022-12-18T13:47:34.721Z,73.67
2022-12-18T13:48:39.466Z,74.36
2022-12-18T13:49:45.002Z,73.99
2022-12-18T13:50:53.970Z,73.02
2022-12-18T13:51:57.262Z,72.54
2022-12-18T13:53:00.419Z,71.92
2022-12-18T13:54:21.089Z,71.23
2022-12-18T13:55:23.596Z,71.24
2022-12-18T13:56:30.337Z,70.97
2022-12-18T13:57:35.423Z,71.37
2022-12-18T13:58:38.033Z,71.65
2022-12-18T13:59:40.991Z,72.39
2022-12-18T14:00:44.278Z,72.50
2022-12-18T14:01:58.625Z,72.40
2022-12-18T14:03:01.419Z,72.47
2022-12-18T14:04:12.183Z,72.18
2022-12-18T14:05:31.008Z,71.38
2022-12-18T14:06:33.475Z,71.48
2022-12-18T14:07:50.361Z,71.28
2022-12-18T14:08:53.899Z,71.87
2022-12-18T14:10:12.251Z,71.67
2022-12-18T14:11:26.661Z,71.89
2022-12-18T14:12:51.471Z,71.77
2022-12-18T14:13:53.981Z,71.79
2022-12-18T14:14:56.905Z,71.84
2022-12-18T14:16:03.103Z,71.80
2022-12-18T14:17:11.461Z,71.14
2022-12-18T14:18:51.680Z,71.36
2022-12-18T14:19:54.036Z,70.80
2022-12-18T14:20:58.875Z,70.68
2022-12-18T14:22:01.568Z,70.83
2022-12-18T14:23:03.849Z,70.54
2022-12-18T14:24:15.595Z,70.86
2022-12-18T14:25:24.257Z,70.26
2022-12-18T14:26:31.691Z,70.85
2022-12-18T14:27:39.318Z,70.97
2022-12-18T14:28:45.218Z,71.04
2022-12-18T14:29:47.434Z,71.07
2022-12-18T14:30:50.776Z,70.89
2022-12-18T14:32:15.025Z,70.68
2022-12-18T14:33:22.521Z,70.96
2022-12-18T14:34:27.802Z,71.90
2022-12-18T14:35:29.971Z,72.62
2022-12-18T14:36:32.581Z,72.78
2022-12-18T14:37:34.997Z,72.46
2022-12-18T14:38:39.898Z,72.15
2022-12-18T14:39:53.693Z,72.06
2022-12-18T14:41:05.225Z,72.09
2022-12-18T14:42:11.722Z,72.96